sensor_id;sensor_type;location;lat;lon;timestamp;P1;durP1;ratioP1;P2;durP2;ratioP2
286;SDS011;127;48.770;9.212;2023-02-01T00:01:31;12.27;;;5.80;;
286;SDS011;127;48.770;9.212;2023-02-01T00:04:00;12.50;;;5.93;;
286;SDS011;127;48.770;9.212;2023-02-01T00:06:28;9.95;;;5.63;;
286;SDS011;127;48.770;9.212;2023-02-01T00:08:57;10.48;;;5.30;;
286;SDS011;127;48.770;9.212;2023-02-01T00:11:26;8.70;;;5.65;;
286;SDS011;127;48.770;9.212;2023-02-01T00:13:57;11.73;;;5.45;;
286;SDS011;127;48.770;9.212;2023-02-01T00:16:26;8.15;;;5.00;;
286;SDS011;127;48.770;9.212;2023-02-01T00:18:57;8.38;;;5.20;;
286;SDS011;127;48.770;9.212;2023-02-01T00:21:27;7.78;;;4.70;;
286;SDS011;127;48.770;9.212;2023-02-01T00:23:56;8.35;;;4.93;;
286;SDS011;127;48.770;9.212;2023-02-01T00:26:26;8.10;;;5.28;;
286;SDS011;127;48.770;9.212;2023-02-01T00:29:02;7.95;;;4.78;;
286;SDS011;127;48.770;9.212;2023-02-01T00:31:32;9.07;;;5.43;;
286;SDS011;127;48.770;9.212;2023-02-01T00:34:01;6.68;;;4.53;;
286;SDS011;127;48.770;9.212;2023-02-01T00:36:29;8.60;;;4.72;;
286;SDS011;127;48.770;9.212;2023-02-01T00:38:58;6.53;;;4.47;;
286;SDS011;127;48.770;9.212;2023-02-01T00:41:27;6.35;;;4.43;;
286;SDS011;127;48.770;9.212;2023-02-01T00:43:55;4.65;;;3.60;;
286;SDS011;127;48.770;9.212;2023-02-01T00:46:27;8.07;;;4.57;;
286;SDS011;127;48.770;9.212;2023-02-01T00:48:56;8.20;;;4.80;;
286;SDS011;127;48.770;9.212;2023-02-01T00:51:25;5.13;;;3.90;;
286;SDS011;127;48.770;9.212;2023-02-01T00:53:55;7.78;;;4.47;;
286;SDS011;127;48.770;9.212;2023-02-01T00:56:24;8.75;;;4.68;;
286;SDS011;127;48.770;9.212;2023-02-01T00:58:53;10.40;;;4.10;;
286;SDS011;127;48.770;9.212;2023-02-01T01:01:23;6.38;;;4.15;;
286;SDS011;127;48.770;9.212;2023-02-01T01:03:56;8.30;;;4.28;;
286;SDS011;127;48.770;9.212;2023-02-01T01:06:27;6.53;;;4.22;;
286;SDS011;127;48.770;9.212;2023-02-01T01:08:58;4.95;;;3.88;;
286;SDS011;127;48.770;9.212;2023-02-01T01:11:29;4.95;;;4.00;;
286;SDS011;127;48.770;9.212;2023-02-01T01:13:59;4.68;;;3.45;;
286;SDS011;127;48.770;9.212;2023-02-01T01:16:29;5.13;;;3.88;;
286;SDS011;127;48.770;9.212;2023-02-01T01:19:01;5.60;;;3.45;;
286;SDS011;127;48.770;9.212;2023-02-01T01:21:30;4.00;;;3.50;;
286;SDS011;127;48.770;9.212;2023-02-01T01:23:59;5.70;;;3.85;;
286;SDS011;127;48.770;9.212;2023-02-01T01:26:28;6.95;;;4.43;;
286;SDS011;127;48.770;9.212;2023-02-01T01:28:58;5.57;;;3.92;;
286;SDS011;127;48.770;9.212;2023-02-01T01:31:27;5.63;;;4.22;;
286;SDS011;127;48.770;9.212;2023-02-01T01:33:57;3.00;;;2.80;;
286;SDS011;127;48.770;9.212;2023-02-01T01:36:28;4.32;;;3.33;;
286;SDS011;127;48.770;9.212;2023-02-01T01:38:57;3.80;;;3.20;;
286;SDS011;127;48.770;9.212;2023-02-01T01:41:28;5.85;;;3.67;;
286;SDS011;127;48.770;9.212;2023-02-01T01:43:59;5.82;;;3.30;;
286;SDS011;127;48.770;9.212;2023-02-01T01:46:29;5.63;;;3.47;;
286;SDS011;127;48.770;9.212;2023-02-01T01:49:04;4.88;;;3.60;;
286;SDS011;127;48.770;9.212;2023-02-01T01:51:37;3.88;;;3.38;;
286;SDS011;127;48.770;9.212;2023-02-01T01:54:09;4.57;;;3.38;;
286;SDS011;127;48.770;9.212;2023-02-01T01:56:42;5.25;;;3.40;;
286;SDS011;127;48.770;9.212;2023-02-01T01:59:14;4.55;;;3.30;;
286;SDS011;127;48.770;9.212;2023-02-01T02:01:43;4.15;;;3.25;;
286;SDS011;127;48.770;9.212;2023-02-01T02:04:14;4.18;;;3.40;;
286;SDS011;127;48.770;9.212;2023-02-01T02:06:45;3.25;;;3.05;;
286;SDS011;127;48.770;9.212;2023-02-01T02:09:20;6.88;;;4.28;;
286;SDS011;127;48.770;9.212;2023-02-01T02:11:49;4.60;;;3.85;;
286;SDS011;127;48.770;9.212;2023-02-01T02:14:18;7.97;;;4.22;;
286;SDS011;127;48.770;9.212;2023-02-01T02:16:53;5.70;;;3.80;;
286;SDS011;127;48.770;9.212;2023-02-01T02:19:43;5.30;;;4.18;;
286;SDS011;127;48.770;9.212;2023-02-01T02:22:43;6.78;;;4.25;;
286;SDS011;127;48.770;9.212;2023-02-01T02:25:41;6.30;;;4.20;;
286;SDS011;127;48.770;9.212;2023-02-01T02:34:39;9.55;;;4.00;;
286;SDS011;127;48.770;9.212;2023-02-01T02:37:15;7.55;;;4.72;;
286;SDS011;127;48.770;9.212;2023-02-01T02:39:55;8.80;;;3.92;;
286;SDS011;127;48.770;9.212;2023-02-01T02:42:33;5.65;;;4.65;;
286;SDS011;127;48.770;9.212;2023-02-01T02:45:23;5.88;;;4.60;;
286;SDS011;127;48.770;9.212;2023-02-01T02:48:10;4.97;;;4.00;;
286;SDS011;127;48.770;9.212;2023-02-01T02:50:46;6.38;;;4.55;;
286;SDS011;127;48.770;9.212;2023-02-01T02:53:34;6.47;;;4.45;;
286;SDS011;127;48.770;9.212;2023-02-01T02:56:19;5.75;;;3.88;;
286;SDS011;127;48.770;9.212;2023-02-01T02:59:01;8.30;;;5.10;;
286;SDS011;127;48.770;9.212;2023-02-01T03:01:44;5.60;;;3.85;;
286;SDS011;127;48.770;9.212;2023-02-01T03:04:25;8.15;;;4.47;;
286;SDS011;127;48.770;9.212;2023-02-01T03:06:56;7.47;;;4.82;;
286;SDS011;127;48.770;9.212;2023-02-01T03:09:26;7.60;;;5.07;;
286;SDS011;127;48.770;9.212;2023-02-01T03:11:59;8.63;;;5.53;;
286;SDS011;127;48.770;9.212;2023-02-01T03:14:49;7.93;;;4.93;;
286;SDS011;127;48.770;9.212;2023-02-01T03:17:24;6.25;;;4.80;;
286;SDS011;127;48.770;9.212;2023-02-01T03:19:57;7.28;;;4.72;;
286;SDS011;127;48.770;9.212;2023-02-01T03:22:31;6.15;;;4.55;;
286;SDS011;127;48.770;9.212;2023-02-01T03:25:02;4.57;;;4.28;;
286;SDS011;127;48.770;9.212;2023-02-01T03:27:34;4.85;;;4.20;;
286;SDS011;127;48.770;9.212;2023-02-01T03:30:06;9.68;;;5.28;;
286;SDS011;127;48.770;9.212;2023-02-01T03:32:38;16.10;;;5.28;;
286;SDS011;127;48.770;9.212;2023-02-01T03:35:26;6.18;;;4.30;;
286;SDS011;127;48.770;9.212;2023-02-01T03:38:03;5.95;;;4.30;;
286;SDS011;127;48.770;9.212;2023-02-01T03:40:46;7.57;;;4.50;;
286;SDS011;127;48.770;9.212;2023-02-01T03:43:19;6.75;;;4.25;;
286;SDS011;127;48.770;9.212;2023-02-01T03:45:52;6.20;;;4.57;;
286;SDS011;127;48.770;9.212;2023-02-01T03:48:26;6.28;;;4.40;;
286;SDS011;127;48.770;9.212;2023-02-01T03:50:57;6.85;;;5.05;;
286;SDS011;127;48.770;9.212;2023-02-01T03:53:30;6.25;;;4.65;;
286;SDS011;127;48.770;9.212;2023-02-01T03:56:01;5.13;;;4.45;;
286;SDS011;127;48.770;9.212;2023-02-01T03:58:30;6.78;;;4.57;;
286;SDS011;127;48.770;9.212;2023-02-01T04:01:00;8.50;;;5.13;;
286;SDS011;127;48.770;9.212;2023-02-01T04:03:29;7.75;;;4.75;;
286;SDS011;127;48.770;9.212;2023-02-01T04:05:58;5.78;;;4.68;;
286;SDS011;127;48.770;9.212;2023-02-01T04:08:26;6.88;;;4.75;;
286;SDS011;127;48.770;9.212;2023-02-01T04:10:57;6.75;;;4.97;;
286;SDS011;127;48.770;9.212;2023-02-01T04:13:26;8.98;;;4.50;;
286;SDS011;127;48.770;9.212;2023-02-01T04:15:54;6.07;;;4.78;;
286;SDS011;127;48.770;9.212;2023-02-01T04:18:23;11.05;;;4.95;;
286;SDS011;127;48.770;9.212;2023-02-01T04:20:52;8.60;;;5.45;;
286;SDS011;127;48.770;9.212;2023-02-01T04:23:20;7.07;;;5.28;;
286;SDS011;127;48.770;9.212;2023-02-01T04:25:52;8.50;;;4.80;;
286;SDS011;127;48.770;9.212;2023-02-01T04:28:22;7.75;;;5.60;;
286;SDS011;127;48.770;9.212;2023-02-01T04:30:50;10.18;;;5.10;;
286;SDS011;127;48.770;9.212;2023-02-01T04:33:19;14.50;;;5.35;;
286;SDS011;127;48.770;9.212;2023-02-01T04:35:47;9.27;;;5.70;;
286;SDS011;127;48.770;9.212;2023-02-01T04:38:16;11.77;;;6.03;;
286;SDS011;127;48.770;9.212;2023-02-01T04:40:46;6.88;;;5.10;;
286;SDS011;127;48.770;9.212;2023-02-01T04:43:18;6.35;;;4.78;;
286;SDS011;127;48.770;9.212;2023-02-01T04:45:47;7.43;;;5.35;;
286;SDS011;127;48.770;9.212;2023-02-01T04:48:16;8.93;;;4.68;;
286;SDS011;127;48.770;9.212;2023-02-01T04:50:48;7.93;;;5.00;;
286;SDS011;127;48.770;9.212;2023-02-01T04:53:16;5.25;;;4.28;;
286;SDS011;127;48.770;9.212;2023-02-01T04:55:47;6.43;;;4.20;;
286;SDS011;127;48.770;9.212;2023-02-01T04:58:19;6.60;;;4.40;;
286;SDS011;127;48.770;9.212;2023-02-01T05:00:47;5.03;;;4.05;;
286;SDS011;127;48.770;9.212;2023-02-01T05:03:16;11.18;;;4.00;;
286;SDS011;127;48.770;9.212;2023-02-01T05:05:46;6.25;;;4.00;;
286;SDS011;127;48.770;9.212;2023-02-01T05:08:16;6.60;;;5.00;;
286;SDS011;127;48.770;9.212;2023-02-01T05:10:47;9.88;;;4.18;;
286;SDS011;127;48.770;9.212;2023-02-01T05:13:18;4.65;;;3.60;;
286;SDS011;127;48.770;9.212;2023-02-01T05:15:59;6.60;;;3.85;;
286;SDS011;127;48.770;9.212;2023-02-01T05:18:28;6.82;;;4.10;;
286;SDS011;127;48.770;9.212;2023-02-01T05:20:57;5.45;;;3.35;;
286;SDS011;127;48.770;9.212;2023-02-01T05:23:26;6.80;;;4.00;;
286;SDS011;127;48.770;9.212;2023-02-01T05:25:58;6.45;;;3.50;;
286;SDS011;127;48.770;9.212;2023-02-01T05:28:29;4.80;;;4.00;;
286;SDS011;127;48.770;9.212;2023-02-01T05:30:58;4.75;;;3.65;;
286;SDS011;127;48.770;9.212;2023-02-01T05:33:27;5.07;;;3.78;;
286;SDS011;127;48.770;9.212;2023-02-01T05:35:55;5.07;;;3.67;;
286;SDS011;127;48.770;9.212;2023-02-01T05:38:24;6.50;;;3.70;;
286;SDS011;127;48.770;9.212;2023-02-01T05:40:54;4.45;;;3.53;;
286;SDS011;127;48.770;9.212;2023-02-01T05:43:23;6.38;;;3.83;;
286;SDS011;127;48.770;9.212;2023-02-01T05:45:54;10.98;;;3.88;;
286;SDS011;127;48.770;9.212;2023-02-01T05:48:23;4.50;;;3.05;;
286;SDS011;127;48.770;9.212;2023-02-01T05:50:51;4.47;;;3.50;;
286;SDS011;127;48.770;9.212;2023-02-01T05:53:20;6.68;;;4.20;;
286;SDS011;127;48.770;9.212;2023-02-01T05:55:49;8.02;;;3.35;;
286;SDS011;127;48.770;9.212;2023-02-01T05:58:18;3.88;;;3.45;;
286;SDS011;127;48.770;9.212;2023-02-01T06:00:46;5.18;;;3.45;;
286;SDS011;127;48.770;9.212;2023-02-01T06:03:17;3.80;;;3.50;;
286;SDS011;127;48.770;9.212;2023-02-01T06:05:47;7.60;;;4.57;;
286;SDS011;127;48.770;9.212;2023-02-01T06:08:15;3.80;;;3.42;;
286;SDS011;127;48.770;9.212;2023-02-01T06:10:44;4.93;;;3.80;;
286;SDS011;127;48.770;9.212;2023-02-01T06:13:12;4.32;;;3.70;;
286;SDS011;127;48.770;9.212;2023-02-01T06:15:41;4.63;;;3.70;;
286;SDS011;127;48.770;9.212;2023-02-01T06:18:10;4.65;;;3.70;;
286;SDS011;127;48.770;9.212;2023-02-01T06:20:43;5.18;;;3.60;;
286;SDS011;127;48.770;9.212;2023-02-01T06:23:12;7.15;;;3.92;;
286;SDS011;127;48.770;9.212;2023-02-01T06:25:40;4.85;;;3.80;;
286;SDS011;127;48.770;9.212;2023-02-01T06:28:10;7.32;;;3.78;;
286;SDS011;127;48.770;9.212;2023-02-01T06:30:38;6.60;;;4.00;;
286;SDS011;127;48.770;9.212;2023-02-01T06:33:11;5.50;;;3.83;;
286;SDS011;127;48.770;9.212;2023-02-01T06:35:42;5.05;;;3.67;;
286;SDS011;127;48.770;9.212;2023-02-01T06:38:12;7.50;;;3.60;;
286;SDS011;127;48.770;9.212;2023-02-01T06:40:42;8.38;;;3.80;;
286;SDS011;127;48.770;9.212;2023-02-01T06:43:11;5.90;;;3.85;;
286;SDS011;127;48.770;9.212;2023-02-01T06:45:39;3.92;;;3.45;;
286;SDS011;127;48.770;9.212;2023-02-01T06:48:08;5.68;;;3.47;;
286;SDS011;127;48.770;9.212;2023-02-01T06:50:36;4.80;;;3.75;;
286;SDS011;127;48.770;9.212;2023-02-01T06:53:07;5.50;;;3.35;;
286;SDS011;127;48.770;9.212;2023-02-01T06:55:36;6.28;;;3.60;;
286;SDS011;127;48.770;9.212;2023-02-01T06:58:05;5.00;;;3.70;;
286;SDS011;127;48.770;9.212;2023-02-01T07:00:33;6.45;;;3.90;;
286;SDS011;127;48.770;9.212;2023-02-01T07:03:02;6.88;;;3.38;;
286;SDS011;127;48.770;9.212;2023-02-01T07:05:30;8.25;;;3.95;;
286;SDS011;127;48.770;9.212;2023-02-01T07:07:59;5.00;;;4.05;;
286;SDS011;127;48.770;9.212;2023-02-01T07:10:30;6.40;;;3.47;;
286;SDS011;127;48.770;9.212;2023-02-01T07:12:59;12.82;;;3.83;;
286;SDS011;127;48.770;9.212;2023-02-01T07:15:28;5.55;;;3.90;;
286;SDS011;127;48.770;9.212;2023-02-01T07:17:56;9.30;;;4.10;;
286;SDS011;127;48.770;9.212;2023-02-01T07:20:25;7.57;;;4.15;;
286;SDS011;127;48.770;9.212;2023-02-01T07:22:56;6.50;;;4.07;;
286;SDS011;127;48.770;9.212;2023-02-01T07:25:25;7.45;;;3.85;;
286;SDS011;127;48.770;9.212;2023-02-01T07:27:56;4.15;;;3.40;;
286;SDS011;127;48.770;9.212;2023-02-01T07:30:25;4.97;;;3.30;;
286;SDS011;127;48.770;9.212;2023-02-01T07:32:54;5.03;;;3.50;;
286;SDS011;127;48.770;9.212;2023-02-01T07:35:26;7.68;;;3.50;;
286;SDS011;127;48.770;9.212;2023-02-01T07:37:54;10.85;;;4.47;;
286;SDS011;127;48.770;9.212;2023-02-01T07:40:25;3.42;;;3.17;;
286;SDS011;127;48.770;9.212;2023-02-01T07:42:58;3.35;;;2.90;;
286;SDS011;127;48.770;9.212;2023-02-01T07:45:26;8.02;;;3.85;;
286;SDS011;127;48.770;9.212;2023-02-01T07:47:55;10.65;;;4.38;;
286;SDS011;127;48.770;9.212;2023-02-01T07:50:23;5.65;;;3.85;;
286;SDS011;127;48.770;9.212;2023-02-01T07:52:52;5.30;;;3.10;;
286;SDS011;127;48.770;9.212;2023-02-01T07:55:21;6.50;;;3.97;;
286;SDS011;127;48.770;9.212;2023-02-01T07:57:49;7.30;;;3.60;;
286;SDS011;127;48.770;9.212;2023-02-01T08:00:22;4.57;;;3.13;;
286;SDS011;127;48.770;9.212;2023-02-01T08:03:03;6.00;;;4.72;;
286;SDS011;127;48.770;9.212;2023-02-01T08:05:32;12.07;;;4.65;;
286;SDS011;127;48.770;9.212;2023-02-01T08:08:02;13.30;;;3.63;;
286;SDS011;127;48.770;9.212;2023-02-01T08:10:30;11.15;;;4.03;;
286;SDS011;127;48.770;9.212;2023-02-01T08:13:00;7.00;;;4.05;;
286;SDS011;127;48.770;9.212;2023-02-01T08:15:32;7.38;;;3.50;;
286;SDS011;127;48.770;9.212;2023-02-01T08:18:01;6.53;;;3.67;;
286;SDS011;127;48.770;9.212;2023-02-01T08:20:29;7.20;;;3.83;;
286;SDS011;127;48.770;9.212;2023-02-01T08:23:01;11.50;;;4.30;;
286;SDS011;127;48.770;9.212;2023-02-01T08:25:29;9.50;;;3.72;;
286;SDS011;127;48.770;9.212;2023-02-01T08:28:00;6.45;;;3.88;;
286;SDS011;127;48.770;9.212;2023-02-01T08:30:28;10.45;;;4.07;;
286;SDS011;127;48.770;9.212;2023-02-01T08:32:59;9.77;;;4.15;;
286;SDS011;127;48.770;9.212;2023-02-01T08:35:28;10.02;;;3.60;;
286;SDS011;127;48.770;9.212;2023-02-01T08:37:57;7.97;;;3.55;;
286;SDS011;127;48.770;9.212;2023-02-01T08:40:26;13.02;;;3.63;;
286;SDS011;127;48.770;9.212;2023-02-01T08:42:54;11.60;;;3.85;;
286;SDS011;127;48.770;9.212;2023-02-01T08:45:26;8.15;;;4.00;;
286;SDS011;127;48.770;9.212;2023-02-01T08:47:59;8.07;;;4.05;;
286;SDS011;127;48.770;9.212;2023-02-01T08:50:28;8.88;;;3.78;;
286;SDS011;127;48.770;9.212;2023-02-01T08:52:57;10.25;;;3.92;;
286;SDS011;127;48.770;9.212;2023-02-01T08:55:25;16.80;;;4.05;;
286;SDS011;127;48.770;9.212;2023-02-01T08:57:54;6.85;;;3.60;;
286;SDS011;127;48.770;9.212;2023-02-01T09:00:23;4.93;;;3.40;;
286;SDS011;127;48.770;9.212;2023-02-01T09:02:52;6.30;;;3.60;;
286;SDS011;127;48.770;9.212;2023-02-01T09:05:23;14.98;;;4.10;;
286;SDS011;127;48.770;9.212;2023-02-01T09:07:52;9.90;;;3.85;;
286;SDS011;127;48.770;9.212;2023-02-01T09:10:21;5.93;;;3.65;;
286;SDS011;127;48.770;9.212;2023-02-01T09:12:51;11.90;;;3.67;;
286;SDS011;127;48.770;9.212;2023-02-01T09:15:19;7.35;;;3.50;;
286;SDS011;127;48.770;9.212;2023-02-01T09:17:48;17.73;;;4.30;;
286;SDS011;127;48.770;9.212;2023-02-01T09:20:19;8.85;;;3.45;;
286;SDS011;127;48.770;9.212;2023-02-01T09:22:51;10.27;;;4.00;;
286;SDS011;127;48.770;9.212;2023-02-01T09:25:19;13.38;;;4.32;;
286;SDS011;127;48.770;9.212;2023-02-01T09:27:48;8.32;;;4.43;;
286;SDS011;127;48.770;9.212;2023-02-01T09:30:17;12.80;;;3.97;;
286;SDS011;127;48.770;9.212;2023-02-01T09:32:45;12.88;;;3.75;;
286;SDS011;127;48.770;9.212;2023-02-01T09:35:14;9.30;;;3.70;;
286;SDS011;127;48.770;9.212;2023-02-01T09:37:45;12.23;;;4.05;;
286;SDS011;127;48.770;9.212;2023-02-01T09:40:14;15.95;;;4.88;;
286;SDS011;127;48.770;9.212;2023-02-01T09:42:52;25.55;;;5.30;;
286;SDS011;127;48.770;9.212;2023-02-01T09:45:47;8.20;;;3.80;;
286;SDS011;127;48.770;9.212;2023-02-01T09:48:24;6.47;;;3.90;;
286;SDS011;127;48.770;9.212;2023-02-01T09:50:57;12.82;;;4.20;;
286;SDS011;127;48.770;9.212;2023-02-01T09:53:33;13.98;;;4.35;;
286;SDS011;127;48.770;9.212;2023-02-01T09:56:05;10.40;;;4.20;;
286;SDS011;127;48.770;9.212;2023-02-01T09:58:35;20.53;;;4.20;;
286;SDS011;127;48.770;9.212;2023-02-01T10:01:11;17.45;;;4.22;;
286;SDS011;127;48.770;9.212;2023-02-01T10:03:44;13.90;;;3.70;;
286;SDS011;127;48.770;9.212;2023-02-01T10:06:17;10.27;;;3.80;;
286;SDS011;127;48.770;9.212;2023-02-01T10:09:10;13.20;;;4.17;;
286;SDS011;127;48.770;9.212;2023-02-01T10:11:52;13.40;;;4.03;;
286;SDS011;127;48.770;9.212;2023-02-01T10:14:38;17.48;;;4.05;;
286;SDS011;127;48.770;9.212;2023-02-01T10:17:23;21.60;;;4.53;;
286;SDS011;127;48.770;9.212;2023-02-01T10:20:07;13.07;;;4.15;;
286;SDS011;127;48.770;9.212;2023-02-01T10:22:46;11.75;;;3.92;;
286;SDS011;127;48.770;9.212;2023-02-01T10:25:23;9.57;;;3.42;;
286;SDS011;127;48.770;9.212;2023-02-01T10:27:55;19.20;;;4.40;;
286;SDS011;127;48.770;9.212;2023-02-01T10:30:28;19.67;;;3.70;;
286;SDS011;127;48.770;9.212;2023-02-01T10:33:07;10.27;;;4.03;;
286;SDS011;127;48.770;9.212;2023-02-01T10:35:44;10.40;;;3.58;;
286;SDS011;127;48.770;9.212;2023-02-01T10:38:17;16.00;;;4.07;;
286;SDS011;127;48.770;9.212;2023-02-01T10:40:55;13.53;;;3.97;;
286;SDS011;127;48.770;9.212;2023-02-01T10:43:28;14.83;;;3.03;;
286;SDS011;127;48.770;9.212;2023-02-01T10:45:59;19.17;;;3.97;;
286;SDS011;127;48.770;9.212;2023-02-01T10:48:27;23.97;;;4.47;;
286;SDS011;127;48.770;9.212;2023-02-01T10:50:58;15.40;;;3.90;;
286;SDS011;127;48.770;9.212;2023-02-01T10:53:29;18.37;;;3.03;;
286;SDS011;127;48.770;9.212;2023-02-01T10:56:08;6.75;;;2.90;;
286;SDS011;127;48.770;9.212;2023-02-01T10:58:42;9.17;;;3.90;;
286;SDS011;127;48.770;9.212;2023-02-01T11:01:15;12.97;;;4.03;;
286;SDS011;127;48.770;9.212;2023-02-01T11:03:51;22.50;;;4.50;;
286;SDS011;127;48.770;9.212;2023-02-01T11:06:24;13.07;;;3.70;;
286;SDS011;127;48.770;9.212;2023-02-01T11:08:56;18.83;;;4.07;;
286;SDS011;127;48.770;9.212;2023-02-01T11:11:28;22.33;;;4.20;;
286;SDS011;127;48.770;9.212;2023-02-01T11:13:58;14.95;;;3.10;;
286;SDS011;127;48.770;9.212;2023-02-01T11:16:28;17.92;;;4.22;;
286;SDS011;127;48.770;9.212;2023-02-01T11:19:00;16.23;;;3.73;;
286;SDS011;127;48.770;9.212;2023-02-01T11:21:29;19.67;;;3.67;;
286;SDS011;127;48.770;9.212;2023-02-01T11:24:00;7.63;;;3.70;;
286;SDS011;127;48.770;9.212;2023-02-01T11:26:34;20.57;;;4.60;;
286;SDS011;127;48.770;9.212;2023-02-01T11:29:10;8.38;;;3.20;;
286;SDS011;127;48.770;9.212;2023-02-01T11:31:42;6.95;;;3.45;;
286;SDS011;127;48.770;9.212;2023-02-01T11:34:14;13.25;;;3.78;;
286;SDS011;127;48.770;9.212;2023-02-01T11:36:45;20.48;;;3.55;;
286;SDS011;127;48.770;9.212;2023-02-01T11:39:19;11.40;;;3.55;;
286;SDS011;127;48.770;9.212;2023-02-01T11:41:59;10.50;;;3.47;;
286;SDS011;127;48.770;9.212;2023-02-01T11:44:33;19.02;;;3.40;;
286;SDS011;127;48.770;9.212;2023-02-01T11:47:17;23.63;;;3.60;;
286;SDS011;127;48.770;9.212;2023-02-01T11:49:51;17.23;;;3.67;;
286;SDS011;127;48.770;9.212;2023-02-01T11:52:25;11.03;;;3.83;;
286;SDS011;127;48.770;9.212;2023-02-01T11:55:21;16.98;;;4.28;;
286;SDS011;127;48.770;9.212;2023-02-01T11:58:11;12.37;;;3.33;;
286;SDS011;127;48.770;9.212;2023-02-01T12:00:52;11.75;;;3.20;;
286;SDS011;127;48.770;9.212;2023-02-01T12:03:43;18.10;;;4.53;;
286;SDS011;127;48.770;9.212;2023-02-01T12:06:32;11.27;;;2.90;;
286;SDS011;127;48.770;9.212;2023-02-01T12:09:18;15.60;;;3.10;;
286;SDS011;127;48.770;9.212;2023-02-01T12:11:59;11.23;;;3.13;;
286;SDS011;127;48.770;9.212;2023-02-01T12:14:44;18.37;;;3.47;;
286;SDS011;127;48.770;9.212;2023-02-01T12:17:37;17.83;;;2.97;;
286;SDS011;127;48.770;9.212;2023-02-01T12:20:23;6.33;;;3.00;;
286;SDS011;127;48.770;9.212;2023-02-01T12:23:05;14.40;;;3.37;;
286;SDS011;127;48.770;9.212;2023-02-01T12:25:43;9.50;;;3.37;;
286;SDS011;127;48.770;9.212;2023-02-01T12:28:27;14.23;;;3.40;;
286;SDS011;127;48.770;9.212;2023-02-01T12:37:09;12.50;;;3.38;;
286;SDS011;127;48.770;9.212;2023-02-01T12:39:47;11.07;;;3.35;;
286;SDS011;127;48.770;9.212;2023-02-01T12:42:26;17.53;;;4.10;;
286;SDS011;127;48.770;9.212;2023-02-01T12:45:00;11.02;;;3.05;;
286;SDS011;127;48.770;9.212;2023-02-01T12:47:32;15.27;;;5.20;;
286;SDS011;127;48.770;9.212;2023-02-01T12:50:12;20.87;;;5.83;;
286;SDS011;127;48.770;9.212;2023-02-01T12:52:47;9.63;;;3.37;;
286;SDS011;127;48.770;9.212;2023-02-01T12:55:19;15.88;;;3.80;;
286;SDS011;127;48.770;9.212;2023-02-01T12:57:51;12.07;;;3.55;;
286;SDS011;127;48.770;9.212;2023-02-01T13:00:25;9.75;;;3.92;;
286;SDS011;127;48.770;9.212;2023-02-01T13:03:00;10.50;;;3.47;;
286;SDS011;127;48.770;9.212;2023-02-01T13:05:37;14.40;;;3.40;;
286;SDS011;127;48.770;9.212;2023-02-01T13:08:16;10.95;;;3.80;;
286;SDS011;127;48.770;9.212;2023-02-01T13:10:51;15.65;;;3.88;;
286;SDS011;127;48.770;9.212;2023-02-01T13:13:29;12.13;;;3.22;;
286;SDS011;127;48.770;9.212;2023-02-01T13:16:06;18.57;;;3.00;;
286;SDS011;127;48.770;9.212;2023-02-01T13:18:43;14.27;;;3.50;;
286;SDS011;127;48.770;9.212;2023-02-01T13:21:20;15.80;;;3.95;;
286;SDS011;127;48.770;9.212;2023-02-01T13:23:53;9.18;;;3.50;;
286;SDS011;127;48.770;9.212;2023-02-01T13:26:22;7.25;;;3.55;;
286;SDS011;127;48.770;9.212;2023-02-01T13:28:51;9.70;;;3.67;;
286;SDS011;127;48.770;9.212;2023-02-01T13:31:36;18.08;;;3.90;;
286;SDS011;127;48.770;9.212;2023-02-01T13:37:26;15.60;;;4.95;;
286;SDS011;127;48.770;9.212;2023-02-01T13:40:19;11.07;;;3.72;;
286;SDS011;127;48.770;9.212;2023-02-01T13:43:02;14.52;;;3.50;;
286;SDS011;127;48.770;9.212;2023-02-01T13:45:36;13.60;;;5.55;;
286;SDS011;127;48.770;9.212;2023-02-01T13:48:17;11.33;;;3.30;;
286;SDS011;127;48.770;9.212;2023-02-01T13:50:53;11.80;;;3.00;;
286;SDS011;127;48.770;9.212;2023-02-01T13:53:29;12.33;;;3.67;;
286;SDS011;127;48.770;9.212;2023-02-01T13:56:02;11.50;;;4.80;;
286;SDS011;127;48.770;9.212;2023-02-01T13:58:34;18.67;;;3.60;;
286;SDS011;127;48.770;9.212;2023-02-01T14:04:04;13.90;;;3.70;;
286;SDS011;127;48.770;9.212;2023-02-01T14:09:30;13.00;;;4.03;;
286;SDS011;127;48.770;9.212;2023-02-01T14:15:16;19.03;;;4.67;;
286;SDS011;127;48.770;9.212;2023-02-01T14:17:53;11.90;;;3.40;;
286;SDS011;127;48.770;9.212;2023-02-01T14:23:24;11.75;;;3.22;;
286;SDS011;127;48.770;9.212;2023-02-01T14:26:03;14.38;;;3.25;;
286;SDS011;127;48.770;9.212;2023-02-01T14:28:46;16.03;;;3.80;;
286;SDS011;127;48.770;9.212;2023-02-01T14:34:19;11.15;;;3.70;;
286;SDS011;127;48.770;9.212;2023-02-01T14:36:54;19.77;;;3.25;;
286;SDS011;127;48.770;9.212;2023-02-01T14:39:26;25.67;;;3.90;;
286;SDS011;127;48.770;9.212;2023-02-01T14:42:05;9.02;;;4.18;;
286;SDS011;127;48.770;9.212;2023-02-01T14:44:47;14.73;;;4.43;;
286;SDS011;127;48.770;9.212;2023-02-01T14:50:07;13.65;;;3.78;;
286;SDS011;127;48.770;9.212;2023-02-01T14:52:49;16.90;;;3.50;;
286;SDS011;127;48.770;9.212;2023-02-01T14:55:21;16.92;;;3.33;;
286;SDS011;127;48.770;9.212;2023-02-01T14:57:57;11.75;;;4.03;;
286;SDS011;127;48.770;9.212;2023-02-01T15:00:30;13.55;;;4.72;;
286;SDS011;127;48.770;9.212;2023-02-01T15:03:15;8.23;;;3.53;;
286;SDS011;127;48.770;9.212;2023-02-01T15:05:59;9.63;;;3.03;;
286;SDS011;127;48.770;9.212;2023-02-01T15:08:31;15.05;;;4.13;;
286;SDS011;127;48.770;9.212;2023-02-01T15:11:02;13.45;;;3.55;;
286;SDS011;127;48.770;9.212;2023-02-01T15:13:37;21.02;;;4.25;;
286;SDS011;127;48.770;9.212;2023-02-01T15:16:09;12.27;;;3.30;;
286;SDS011;127;48.770;9.212;2023-02-01T15:18:40;17.15;;;4.35;;
286;SDS011;127;48.770;9.212;2023-02-01T15:21:15;9.07;;;3.38;;
286;SDS011;127;48.770;9.212;2023-02-01T15:23:45;17.90;;;3.63;;
286;SDS011;127;48.770;9.212;2023-02-01T15:26:25;10.23;;;3.78;;
286;SDS011;127;48.770;9.212;2023-02-01T15:28:58;15.43;;;3.72;;
286;SDS011;127;48.770;9.212;2023-02-01T15:31:34;7.88;;;3.55;;
286;SDS011;127;48.770;9.212;2023-02-01T15:34:05;8.00;;;3.45;;
286;SDS011;127;48.770;9.212;2023-02-01T15:36:35;14.30;;;4.33;;
286;SDS011;127;48.770;9.212;2023-02-01T15:41:51;12.73;;;3.95;;
286;SDS011;127;48.770;9.212;2023-02-01T15:44:30;16.00;;;4.22;;
286;SDS011;127;48.770;9.212;2023-02-01T15:47:05;23.65;;;3.72;;
286;SDS011;127;48.770;9.212;2023-02-01T15:49:39;20.60;;;3.75;;
286;SDS011;127;48.770;9.212;2023-02-01T15:52:16;7.85;;;3.38;;
286;SDS011;127;48.770;9.212;2023-02-01T15:54:51;12.73;;;3.70;;
286;SDS011;127;48.770;9.212;2023-02-01T15:57:23;9.52;;;2.95;;
286;SDS011;127;48.770;9.212;2023-02-01T15:59:58;7.60;;;3.25;;
286;SDS011;127;48.770;9.212;2023-02-01T16:02:32;6.47;;;3.33;;
286;SDS011;127;48.770;9.212;2023-02-01T16:05:04;17.85;;;3.00;;
286;SDS011;127;48.770;9.212;2023-02-01T16:07:34;11.80;;;3.33;;
286;SDS011;127;48.770;9.212;2023-02-01T16:10:18;12.60;;;4.03;;
286;SDS011;127;48.770;9.212;2023-02-01T16:12:52;8.75;;;3.72;;
286;SDS011;127;48.770;9.212;2023-02-01T16:15:27;11.45;;;2.83;;
286;SDS011;127;48.770;9.212;2023-02-01T16:17:57;9.32;;;2.88;;
286;SDS011;127;48.770;9.212;2023-02-01T16:20:25;10.13;;;2.78;;
286;SDS011;127;48.770;9.212;2023-02-01T16:22:54;12.43;;;3.15;;
286;SDS011;127;48.770;9.212;2023-02-01T16:25:23;9.48;;;2.90;;
286;SDS011;127;48.770;9.212;2023-02-01T16:27:52;9.00;;;3.35;;
286;SDS011;127;48.770;9.212;2023-02-01T16:30:21;15.15;;;3.45;;
286;SDS011;127;48.770;9.212;2023-02-01T16:32:54;5.78;;;2.90;;
286;SDS011;127;48.770;9.212;2023-02-01T16:35:25;6.60;;;3.05;;
286;SDS011;127;48.770;9.212;2023-02-01T16:37:57;12.38;;;3.45;;
286;SDS011;127;48.770;9.212;2023-02-01T16:40:26;8.48;;;3.78;;
286;SDS011;127;48.770;9.212;2023-02-01T16:42:55;8.02;;;2.72;;
286;SDS011;127;48.770;9.212;2023-02-01T16:45:23;7.78;;;3.67;;
286;SDS011;127;48.770;9.212;2023-02-01T16:47:55;10.65;;;3.58;;
286;SDS011;127;48.770;9.212;2023-02-01T16:50:25;10.10;;;3.50;;
286;SDS011;127;48.770;9.212;2023-02-01T16:52:56;12.50;;;3.63;;